Time;durP1;ratioP1;P1;durP2;ratioP2;P2;SDS_P1;SDS_P2;PMS_P1;PMS_P2;Temp;Humidity;BMP_temperature;BMP_pressure;BME280_temperature;BME280_humidity;BME280_pressure;Samples;Min_cycle;Max_cycle;Signal;HPM_P1;HPM_P2
2023/03/29 00:00:26;;;;;;;5.22;1.77;;;6.50;99.90;;;;;;5066268;28;20033;-79
2023/03/29 00:02:55;;;;;;;4.95;2.28;;;7.10;99.90;;;;;;5064529;28;20047;-79
2023/03/29 00:05:24;;;;;;;3.35;1.80;;;6.70;99.90;;;;;;5065888;28;20048;-79
2023/03/29 00:07:52;;;;;;;6.13;2.55;;;6.20;99.90;;;;;;5032187;28;20060;-79
2023/03/29 00:10:21;;;;;;;3.55;2.05;;;5.70;99.90;;;;;;5065549;28;20048;-79
2023/03/29 00:12:47;;;;;;;5.25;1.85;;;5.70;99.90;;;;;;5065583;28;20051;-79
2023/03/29 00:15:13;;;;;;;3.97;2.20;;;7.00;99.90;;;;;;5065441;28;20405;-79
2023/03/29 00:17:39;;;;;;;3.92;2.03;;;5.70;99.90;;;;;;5065930;28;20060;-79
2023/03/29 00:20:09;;;;;;;4.43;1.83;;;5.70;99.90;;;;;;5065755;28;20053;-79
2023/03/29 00:22:38;;;;;;;6.53;2.28;;;5.70;99.90;;;;;;5066139;28;20438;-79
2023/03/29 00:25:06;;;;;;;3.47;2.00;;;5.70;99.90;;;;;;5065173;28;20446;-79
2023/03/29 00:27:32;;;;;;;3.70;1.98;;;5.70;99.90;;;;;;5067790;28;20048;-79
2023/03/29 00:29:58;;;;;;;6.57;1.98;;;7.00;99.90;;;;;;5052722;28;20053;-78
2023/03/29 00:32:24;;;;;;;7.15;2.15;;;6.80;99.90;;;;;;5051864;28;20163;-78
2023/03/29 00:34:50;;;;;;;2.97;2.00;;;5.70;99.90;;;;;;5069825;28;20052;-78
2023/03/29 00:37:19;;;;;;;2.78;1.83;;;6.80;99.90;;;;;;5051547;28;20048;-79
2023/03/29 00:39:45;;;;;;;4.63;1.63;;;5.70;99.90;;;;;;5069411;28;20158;-78
2023/03/29 00:42:12;;;;;;;9.45;1.90;;;5.70;99.90;;;;;;5068714;28;20480;-79
2023/03/29 00:45:04;;;;;;;5.28;2.05;;;5.60;99.90;;;;;;5070478;28;20049;-79
2023/03/29 00:47:30;;;;;;;3.58;1.90;;;5.70;99.90;;;;;;5069168;28;20055;-79
2023/03/29 00:50:01;;;;;;;3.70;1.38;;;5.70;99.90;;;;;;5069154;28;20044;-79
2023/03/29 00:52:30;;;;;;;9.93;2.25;;;5.70;99.90;;;;;;5068873;28;20503;-79
2023/03/29 00:55:00;;;;;;;4.22;2.35;;;5.70;99.90;;;;;;5068468;28;20048;-79
2023/03/29 00:57:29;;;;;;;6.53;1.77;;;5.70;99.90;;;;;;5069175;28;20353;-78
2023/03/29 00:59:57;;;;;;;4.25;1.70;;;7.20;99.90;;;;;;5070275;28;20048;-79
2023/03/29 01:02:26;;;;;;;6.65;1.70;;;6.20;99.90;;;;;;5067688;28;20044;-79
2023/03/29 01:05:07;;;;;;;5.45;1.90;;;5.70;99.90;;;;;;5070419;28;20095;-79
2023/03/29 01:07:41;;;;;;;5.38;1.83;;;5.70;99.90;;;;;;5067717;28;20455;-78
2023/03/29 01:10:18;;;;;;;4.78;2.17;;;5.70;99.90;;;;;;5052014;28;20099;-78
2023/03/29 01:12:55;;;;;;;3.42;1.85;;;5.70;99.90;;;;;;5068753;28;20059;-79
2023/03/29 01:15:27;;;;;;;5.97;1.90;;;5.70;99.90;;;;;;5067701;28;20055;-79
2023/03/29 01:17:54;;;;;;;3.13;1.73;;;7.20;99.90;;;;;;5068532;28;20514;-78
2023/03/29 01:20:41;;;;;;;3.40;1.48;;;5.70;99.90;;;;;;5068788;28;20045;-78
2023/03/29 01:23:29;;;;;;;6.22;1.83;;;5.70;99.90;;;;;;5069902;28;20045;-78
2023/03/29 01:26:08;;;;;;;3.00;1.70;;;5.80;99.90;;;;;;5069894;28;20083;-79
2023/03/29 01:28:51;;;;;;;3.20;2.10;;;5.70;99.90;;;;;;5067268;28;20094;-78
2023/03/29 01:31:25;;;;;;;5.65;1.48;;;5.70;99.90;;;;;;5070054;28;20202;-79
2023/03/29 01:34:00;;;;;;;5.20;1.80;;;6.90;99.90;;;;;;5069583;28;20102;-78
2023/03/29 01:36:38;;;;;;;4.95;2.22;;;6.70;99.90;;;;;;5067958;28;20045;-80
2023/03/29 01:39:05;;;;;;;4.97;2.13;;;6.80;99.90;;;;;;5069127;28;20047;-80
2023/03/29 01:41:45;;;;;;;3.75;1.67;;;6.70;99.90;;;;;;5050364;28;20049;-80
2023/03/29 01:44:19;;;;;;;6.18;1.92;;;5.80;99.90;;;;;;5069886;28;20088;-79
2023/03/29 01:47:10;;;;;;;5.70;1.80;;;5.80;99.90;;;;;;5067749;28;20054;-80
2023/03/29 01:50:10;;;;;;;5.13;1.73;;;5.70;99.90;;;;;;5067337;28;20051;-80
2023/03/29 01:52:41;;;;;;;6.60;2.15;;;6.50;99.90;;;;;;5067725;28;20056;-79
2023/03/29 01:55:16;;;;;;;2.33;1.70;;;5.70;99.90;;;;;;5067244;28;20048;-80
2023/03/29 01:57:44;;;;;;;3.53;1.85;;;5.70;99.90;;;;;;5067892;28;20145;-80
2023/03/29 02:00:23;;;;;;;5.63;2.13;;;7.10;99.90;;;;;;5068298;28;20040;-80
2023/03/29 02:02:51;;;;;;;5.22;2.50;;;5.70;99.90;;;;;;5066795;28;20072;-79
2023/03/29 02:05:19;;;;;;;4.32;2.33;;;5.80;99.90;;;;;;5067967;28;20106;-80
2023/03/29 02:07:47;;;;;;;4.68;2.05;;;7.00;99.90;;;;;;5067145;28;20365;-80
2023/03/29 02:10:15;;;;;;;6.75;2.42;;;7.10;99.90;;;;;;5067449;28;20490;-80
2023/03/29 02:12:41;;;;;;;4.13;2.13;;;7.20;99.90;;;;;;5069196;28;20123;-80
2023/03/29 02:15:13;;;;;;;4.22;2.08;;;5.80;99.90;;;;;;5068509;28;20041;-78
2023/03/29 02:17:38;;;;;;;5.63;2.75;;;5.70;99.90;;;;;;5067453;28;20499;-78
2023/03/29 02:20:13;;;;;;;4.65;1.95;;;6.30;99.90;;;;;;5066617;28;20076;-78
2023/03/29 02:22:52;;;;;;;9.02;2.45;;;5.70;99.90;;;;;;5067691;28;20083;-78
2023/03/29 02:25:18;;;;;;;5.90;2.60;;;5.70;99.90;;;;;;5068682;28;20048;-78
2023/03/29 02:27:44;;;;;;;9.20;2.92;;;5.80;99.90;;;;;;5066930;28;20101;-78
2023/03/29 02:30:14;;;;;;;6.03;2.40;;;5.80;99.90;;;;;;5068435;28;20082;-78
2023/03/29 02:33:12;;;;;;;7.38;2.67;;;5.70;99.90;;;;;;5067584;28;20040;-78
2023/03/29 02:35:48;;;;;;;5.07;2.72;;;6.50;99.90;;;;;;5054119;28;20048;-78
2023/03/29 02:38:15;;;;;;;6.15;2.90;;;5.70;99.90;;;;;;5068717;28;20621;-78
2023/03/29 02:40:42;;;;;;;8.02;2.60;;;5.70;99.90;;;;;;5049831;28;20123;-78
2023/03/29 02:43:14;;;;;;;10.88;3.05;;;6.30;99.90;;;;;;5068724;28;20094;-78
2023/03/29 02:45:41;;;;;;;5.05;2.90;;;5.70;99.90;;;;;;5065505;28;20055;-78
2023/03/29 02:48:12;;;;;;;5.63;3.13;;;5.70;99.90;;;;;;5067551;28;20116;-78
2023/03/29 02:50:41;;;;;;;7.90;3.10;;;6.10;99.90;;;;;;5064976;28;20677;-78
2023/03/29 02:53:15;;;;;;;8.63;3.38;;;7.10;99.90;;;;;;5066522;28;20037;-79
2023/03/29 02:55:41;;;;;;;6.22;2.65;;;5.80;99.90;;;;;;5067197;28;20484;-78
2023/03/29 02:58:07;;;;;;;5.97;2.90;;;5.80;99.90;;;;;;5065188;28;20055;-78
2023/03/29 03:00:39;;;;;;;7.82;3.40;;;5.80;99.90;;;;;;5068285;28;20079;-78
2023/03/29 03:03:06;;;;;;;5.82;2.22;;;5.80;99.90;;;;;;5065060;28;20064;-79
2023/03/29 03:05:32;;;;;;;4.03;2.78;;;5.80;99.90;;;;;;5067102;28;20075;-79
2023/03/29 03:07:58;;;;;;;7.65;3.28;;;5.80;99.90;;;;;;5066393;28;20045;-78
2023/03/29 03:10:24;;;;;;;13.38;3.60;;;6.70;99.90;;;;;;5066099;28;20121;-79
2023/03/29 03:12:50;;;;;;;8.40;3.30;;;5.80;99.90;;;;;;5066531;28;20431;-78
2023/03/29 03:15:16;;;;;;;5.65;2.88;;;6.80;99.90;;;;;;5066636;28;20158;-78
2023/03/29 03:17:42;;;;;;;9.57;3.42;;;5.80;99.90;;;;;;5066969;28;20045;-78
2023/03/29 03:20:11;;;;;;;5.32;2.92;;;5.80;99.90;;;;;;5066454;28;20044;-78
2023/03/29 03:22:41;;;;;;;6.82;2.67;;;5.80;99.90;;;;;;5068103;28;20051;-78
2023/03/29 03:25:10;;;;;;;7.32;3.20;;;5.80;99.90;;;;;;5066060;28;20080;-78
2023/03/29 03:27:36;;;;;;;7.00;3.60;;;6.60;99.90;;;;;;5067169;28;20048;-78
2023/03/29 03:30:06;;;;;;;8.50;2.97;;;5.90;99.90;;;;;;5066468;28;20067;-78
2023/03/29 03:32:34;;;;;;;6.07;3.20;;;5.80;99.90;;;;;;5048147;28;20040;-78
2023/03/29 03:34:59;;;;;;;5.55;3.20;;;6.10;99.90;;;;;;5049784;28;20075;-78
2023/03/29 03:37:26;;;;;;;5.60;2.92;;;7.00;99.90;;;;;;5066505;28;20416;-78
2023/03/29 03:39:52;;;;;;;7.18;3.55;;;5.80;99.90;;;;;;5066187;28;20504;-78
2023/03/29 03:42:18;;;;;;;6.35;2.83;;;6.00;99.90;;;;;;5065400;28;20052;-78
2023/03/29 03:44:44;;;;;;;5.90;2.83;;;5.80;99.90;;;;;;5065402;28;20048;-78
2023/03/29 03:47:12;;;;;;;7.65;3.50;;;5.80;99.90;;;;;;5065815;28;20150;-78
2023/03/29 03:49:38;;;;;;;4.90;3.45;;;7.00;99.90;;;;;;5064616;28;20052;-78
2023/03/29 03:52:04;;;;;;;5.25;3.25;;;5.80;99.90;;;;;;5065779;28;20140;-78
2023/03/29 03:54:30;;;;;;;5.57;3.00;;;6.80;99.90;;;;;;5048673;28;20401;-78
2023/03/29 03:56:57;;;;;;;6.70;3.55;;;5.90;99.90;;;;;;5066130;28;20059;-78
2023/03/29 03:59:22;;;;;;;6.28;3.45;;;5.80;99.90;;;;;;5065389;28;20044;-78
2023/03/29 04:01:48;;;;;;;6.45;3.10;;;7.30;99.90;;;;;;5048519;28;20113;-78
2023/03/29 04:04:15;;;;;;;5.50;3.35;;;7.00;99.90;;;;;;5066361;28;20080;-78
2023/03/29 04:06:42;;;;;;;6.15;3.10;;;5.90;99.90;;;;;;5031525;28;20089;-78
2023/03/29 04:09:08;;;;;;;4.80;3.17;;;5.80;99.90;;;;;;5049404;28;20041;-78
2023/03/29 04:11:34;;;;;;;6.45;3.50;;;5.90;99.90;;;;;;5047817;28;20056;-78
2023/03/29 04:14:00;;;;;;;7.25;3.50;;;5.90;99.90;;;;;;5032825;28;20529;-78
2023/03/29 04:16:27;;;;;;;6.78;3.40;;;5.90;99.90;;;;;;5065225;28;20056;-79
2023/03/29 04:18:53;;;;;;;8.55;3.72;;;5.90;99.90;;;;;;5065273;28;20064;-79
2023/03/29 04:21:19;;;;;;;6.40;3.53;;;5.90;99.90;;;;;;5065827;28;20055;-79
2023/03/29 04:23:45;;;;;;;11.60;3.25;;;6.70;99.90;;;;;;5064445;28;20040;-79
2023/03/29 04:26:12;;;;;;;5.28;3.55;;;5.90;99.90;;;;;;5067673;28;20056;-79
2023/03/29 04:28:38;;;;;;;7.88;4.93;;;5.90;99.90;;;;;;5031619;28;20052;-79
2023/03/29 04:31:07;;;;;;;7.13;3.70;;;7.00;99.90;;;;;;5065572;28;20048;-78
2023/03/29 04:33:33;;;;;;;6.25;3.25;;;5.90;99.90;;;;;;5065264;28;20047;-79
2023/03/29 04:35:58;;;;;;;5.47;3.28;;;6.60;99.90;;;;;;5065084;28;20041;-78
2023/03/29 04:38:25;;;;;;;11.68;3.80;;;7.00;99.90;;;;;;5048946;28;20136;-79
2023/03/29 04:40:51;;;;;;;9.13;4.13;;;7.00;99.90;;;;;;5031532;28;20048;-79
2023/03/29 04:43:17;;;;;;;6.38;3.63;;;5.90;99.90;;;;;;5065897;28;20045;-80
2023/03/29 04:45:42;;;;;;;6.55;3.67;;;5.80;99.90;;;;;;5064215;28;20136;-79
2023/03/29 04:48:08;;;;;;;8.68;4.65;;;6.00;99.90;;;;;;5048668;28;20041;-79
2023/03/29 04:50:35;;;;;;;6.40;3.97;;;6.00;99.90;;;;;;5066096;28;20122;-79
2023/03/29 04:53:01;;;;;;;7.07;3.67;;;6.80;99.90;;;;;;5067111;28;20053;-80
2023/03/29 04:55:26;;;;;;;8.63;4.15;;;6.30;99.90;;;;;;5066531;28;20044;-79
2023/03/29 04:57:52;;;;;;;8.88;3.95;;;6.00;99.90;;;;;;5065650;28;20170;-80
2023/03/29 05:00:25;;;;;;;9.00;4.55;;;6.50;99.90;;;;;;5066940;28;20901;-82
2023/03/29 05:02:51;;;;;;;10.00;3.88;;;6.00;99.90;;;;;;5064448;28;20071;-82
2023/03/29 05:05:17;;;;;;;7.05;3.97;;;6.00;99.90;;;;;;5065398;28;20049;-81
2023/03/29 05:07:44;;;;;;;13.65;5.18;;;6.00;99.90;;;;;;5064513;28;20048;-80
2023/03/29 05:10:10;;;;;;;7.55;4.63;;;7.20;99.90;;;;;;5048182;28;20135;-81
2023/03/29 05:12:36;;;;;;;9.93;4.55;;;7.10;99.90;;;;;;5066948;28;20136;-83
2023/03/29 05:15:06;;;;;;;5.75;4.07;;;6.10;99.90;;;;;;5066390;28;20055;-82
2023/03/29 05:17:33;;;;;;;8.55;4.25;;;6.10;99.90;;;;;;5070223;28;20328;-81
2023/03/29 05:19:59;;;;;;;8.23;4.45;;;7.50;99.90;;;;;;5068883;28;20109;-81
2023/03/29 05:22:26;;;;;;;7.95;4.45;;;7.20;99.90;;;;;;5070371;28;20453;-81
2023/03/29 05:24:52;;;;;;;8.63;4.90;;;6.50;99.90;;;;;;5067768;28;20138;-80
2023/03/29 05:27:19;;;;;;;11.93;4.80;;;6.90;99.90;;;;;;5069903;28;20040;-79
2023/03/29 05:29:45;;;;;;;8.50;5.18;;;6.10;99.90;;;;;;5068465;28;20500;-81
2023/03/29 05:32:12;;;;;;;11.43;4.43;;;6.20;99.90;;;;;;5068938;28;20045;-79
2023/03/29 05:34:38;;;;;;;7.95;4.47;;;7.20;99.90;;;;;;5069467;28;20533;-80
2023/03/29 05:37:04;;;;;;;9.20;4.40;;;6.10;99.90;;;;;;5068758;28;20098;-80
2023/03/29 05:39:32;;;;;;;11.52;4.47;;;6.50;99.90;;;;;;5069653;28;20483;-79
2023/03/29 05:41:58;;;;;;;8.13;4.95;;;6.10;99.90;;;;;;5069194;28;20052;-79
2023/03/29 05:44:24;;;;;;;11.20;4.97;;;6.10;99.90;;;;;;5069611;28;20037;-80
2023/03/29 05:46:50;;;;;;;10.20;4.68;;;6.10;99.90;;;;;;5069867;28;20112;-81
2023/03/29 05:49:16;;;;;;;11.45;4.85;;;6.90;99.90;;;;;;5068481;28;20566;-80
2023/03/29 05:51:44;;;;;;;9.77;5.05;;;6.10;99.90;;;;;;5067650;28;20052;-80
2023/03/29 05:54:10;;;;;;;8.10;4.65;;;6.20;99.90;;;;;;5066787;28;20040;-80
2023/03/29 05:56:36;;;;;;;13.60;4.72;;;6.50;99.90;;;;;;5068299;28;20040;-80
2023/03/29 05:59:02;;;;;;;12.38;5.68;;;6.60;99.90;;;;;;5067047;28;20056;-81
2023/03/29 06:01:28;;;;;;;9.07;4.47;;;6.20;99.90;;;;;;5067661;28;20240;-85
2023/03/29 06:03:56;;;;;;;8.18;5.00;;;7.80;99.90;;;;;;5051200;28;20051;-80
2023/03/29 06:06:22;;;;;;;9.15;4.78;;;7.70;99.90;;;;;;5068319;28;20048;-80
2023/03/29 06:08:47;;;;;;;7.03;4.88;;;6.30;99.90;;;;;;5069633;28;20044;-80
2023/03/29 06:11:14;;;;;;;13.40;5.25;;;6.30;99.90;;;;;;5068089;28;20241;-80
2023/03/29 06:13:40;;;;;;;9.05;5.10;;;6.30;99.90;;;;;;5068083;28;20040;-80
2023/03/29 06:16:09;;;;;;;10.20;5.35;;;7.50;99.90;;;;;;5066862;28;20552;-81
2023/03/29 06:18:36;;;;;;;9.18;7.03;;;6.30;99.90;;;;;;5068736;28;20040;-78
2023/03/29 06:21:03;;;;;;;11.27;5.72;;;6.60;99.90;;;;;;5068854;28;20170;-78
2023/03/29 06:23:30;;;;;;;13.00;5.82;;;6.30;99.90;;;;;;5049624;28;20052;-79
2023/03/29 06:25:56;;;;;;;11.23;5.50;;;6.40;99.90;;;;;;5067432;28;20044;-78
2023/03/29 06:28:23;;;;;;;14.18;6.07;;;6.40;99.90;;;;;;5067890;28;20080;-79
2023/03/29 06:30:49;;;;;;;16.70;5.35;;;6.40;99.90;;;;;;5051028;28;20076;-79
2023/03/29 06:33:19;;;;;;;9.43;5.85;;;6.40;99.90;;;;;;5049652;28;20044;-81
2023/03/29 06:35:48;;;;;;;9.85;5.55;;;6.40;99.90;;;;;;5050547;28;20051;-77
2023/03/29 06:38:15;;;;;;;11.73;4.95;;;6.40;99.90;;;;;;5066970;28;20037;-78
2023/03/29 06:40:42;;;;;;;9.10;5.53;;;6.40;99.90;;;;;;5066400;28;20054;-78
2023/03/29 06:43:08;;;;;;;9.15;5.53;;;6.50;99.90;;;;;;5067022;28;20088;-78
2023/03/29 06:45:36;;;;;;;11.13;5.97;;;7.00;99.90;;;;;;5066022;28;20060;-78
2023/03/29 06:48:03;;;;;;;10.88;6.07;;;7.60;99.90;;;;;;5066941;28;20044;-79
2023/03/29 06:50:29;;;;;;;8.80;5.50;;;6.50;99.90;;;;;;5067144;28;20037;-79
2023/03/29 06:52:56;;;;;;;12.07;6.20;;;6.90;99.90;;;;;;5067761;28;20060;-78
2023/03/29 06:55:23;;;;;;;12.45;6.43;;;6.50;99.90;;;;;;5068603;28;20494;-78
2023/03/29 06:57:49;;;;;;;13.55;6.05;;;6.50;99.90;;;;;;5066874;28;20076;-78
2023/03/29 07:00:26;;;;;;;15.90;6.72;;;6.60;99.90;;;;;;5066505;28;20484;-78
2023/03/29 07:02:57;;;;;;;10.82;6.28;;;6.60;99.90;;;;;;5065433;28;20177;-78
2023/03/29 07:05:26;;;;;;;10.02;5.65;;;6.60;99.90;;;;;;5068079;28;20075;-78
2023/03/29 07:07:55;;;;;;;10.35;5.75;;;6.70;99.90;;;;;;5066133;28;20051;-78
2023/03/29 07:10:32;;;;;;;11.18;5.93;;;6.80;99.90;;;;;;5067269;28;20051;-78
2023/03/29 07:12:59;;;;;;;8.52;5.88;;;6.80;99.90;;;;;;5049645;28;20040;-78
2023/03/29 07:15:26;;;;;;;12.02;5.70;;;6.90;99.90;;;;;;5064975;28;20048;-78
2023/03/29 07:17:53;;;;;;;11.18;6.18;;;7.00;99.90;;;;;;5066083;28;20048;-79
2023/03/29 07:20:21;;;;;;;13.57;6.22;;;7.40;99.90;;;;;;5066712;28;20086;-78
2023/03/29 07:22:47;;;;;;;11.48;5.78;;;7.10;99.90;;;;;;5067513;28;20052;-78
2023/03/29 07:25:14;;;;;;;14.23;5.68;;;7.20;99.90;;;;;;5049475;28;20040;-78
2023/03/29 07:27:41;;;;;;;7.53;5.30;;;7.20;99.90;;;;;;5065071;28;20136;-79
2023/03/29 07:30:09;;;;;;;13.30;5.78;;;7.30;99.90;;;;;;5066047;28;20136;-79
2023/03/29 07:32:36;;;;;;;7.68;5.45;;;7.40;99.90;;;;;;5065008;28;20041;-78
2023/03/29 07:35:04;;;;;;;10.77;6.07;;;7.90;99.90;;;;;;5066111;28;20048;-78
2023/03/29 07:37:31;;;;;;;13.57;6.22;;;7.50;99.90;;;;;;5066618;28;20037;-78
2023/03/29 07:39:59;;;;;;;9.00;5.28;;;7.50;99.90;;;;;;5033506;28;20110;-78
2023/03/29 07:42:24;;;;;;;15.40;6.15;;;7.50;99.90;;;;;;5066061;28;20127;-79
2023/03/29 07:44:50;;;;;;;12.27;5.65;;;7.50;99.90;;;;;;5064984;28;20131;-78
2023/03/29 07:47:16;;;;;;;11.95;5.55;;;7.50;99.90;;;;;;5066030;28;20040;-79
2023/03/29 07:49:42;;;;;;;11.52;5.72;;;7.50;99.90;;;;;;5048451;28;20048;-78
2023/03/29 07:52:07;;;;;;;9.10;5.28;;;7.50;99.90;;;;;;5066953;28;20056;-79
2023/03/29 07:54:33;;;;;;;13.70;5.80;;;7.50;99.90;;;;;;5065087;28;20469;-78
2023/03/29 07:56:59;;;;;;;10.18;4.75;;;7.50;99.90;;;;;;5067153;28;20040;-78
2023/03/29 07:59:26;;;;;;;9.00;5.03;;;6.90;99.90;;;;;;5067041;28;20048;-78
2023/03/29 08:01:54;;;;;;;11.63;5.63;;;7.70;99.90;;;;;;5064858;28;20040;-78
2023/03/29 08:04:20;;;;;;;10.30;5.28;;;7.80;99.90;;;;;;5065674;28;20514;-79
2023/03/29 08:06:46;;;;;;;11.93;5.43;;;7.70;99.90;;;;;;5066030;28;20044;-78
2023/03/29 08:09:11;;;;;;;6.72;4.60;;;7.80;99.90;;;;;;5049089;28;20044;-79
2023/03/29 08:11:38;;;;;;;10.27;5.72;;;7.90;99.90;;;;;;5064635;28;20055;-79
2023/03/29 08:14:05;;;;;;;14.52;6.13;;;8.50;99.90;;;;;;5065793;28;20049;-79
2023/03/29 08:16:31;;;;;;;8.57;5.53;;;8.10;99.90;;;;;;5066955;28;20044;-78
2023/03/29 08:18:58;;;;;;;16.00;5.65;;;8.20;99.90;;;;;;5064854;28;20036;-78
2023/03/29 08:21:24;;;;;;;12.85;5.82;;;8.20;99.90;;;;;;5048834;28;20110;-79
2023/03/29 08:23:50;;;;;;;8.75;5.00;;;8.30;99.90;;;;;;5065649;28;20523;-79
2023/03/29 08:26:16;;;;;;;9.77;4.55;;;8.30;99.90;;;;;;5065937;28;20049;-78
2023/03/29 08:28:43;;;;;;;11.35;5.53;;;8.30;99.90;;;;;;5066160;28;20135;-79
2023/03/29 08:31:09;;;;;;;7.80;5.03;;;8.30;99.90;;;;;;5065676;28;20055;-79
2023/03/29 08:33:35;;;;;;;9.70;5.35;;;8.50;99.90;;;;;;5066638;28;20132;-78
2023/03/29 08:36:02;;;;;;;8.52;5.43;;;9.30;99.90;;;;;;5048522;28;20128;-79
2023/03/29 08:38:28;;;;;;;12.70;5.55;;;8.50;99.90;;;;;;5065698;28;20134;-79
2023/03/29 08:40:54;;;;;;;9.90;5.03;;;8.70;99.90;;;;;;5065521;28;20048;-79
2023/03/29 08:43:55;;;;;;;8.52;5.28;;;8.80;99.90;;;;;;5048660;28;20139;-79
2023/03/29 08:46:39;;;;;;;9.35;5.30;;;8.80;99.90;;;;;;5065122;28;20142;-78
2023/03/29 08:49:08;;;;;;;8.45;5.22;;;8.80;99.90;;;;;;5049153;28;20145;-78
2023/03/29 08:51:46;;;;;;;9.77;4.93;;;8.80;99.90;;;;;;5070187;28;20063;-79
2023/03/29 08:54:23;;;;;;;12.07;5.60;;;8.90;99.90;;;;;;5067793;28;20049;-78
2023/03/29 08:56:51;;;;;;;10.95;5.03;;;9.00;99.90;;;;;;5069867;28;20391;-79
2023/03/29 08:59:28;;;;;;;13.73;5.63;;;9.20;99.90;;;;;;5067740;28;20056;-78
2023/03/29 09:01:56;;;;;;;13.02;6.15;;;9.30;99.90;;;;;;5067077;28;20053;-79
2023/03/29 09:04:27;;;;;;;8.65;5.50;;;9.40;99.90;;;;;;5069328;28;20064;-78
2023/03/29 09:06:53;;;;;;;9.55;5.50;;;9.40;99.90;;;;;;5068240;28;20055;-78
2023/03/29 09:09:28;;;;;;;11.23;4.97;;;9.50;99.90;;;;;;5068128;28;20044;-79
2023/03/29 09:12:06;;;;;;;13.23;5.50;;;9.60;99.90;;;;;;5066920;28;20054;-78
2023/03/29 09:14:49;;;;;;;13.50;5.18;;;9.60;99.90;;;;;;5067487;28;20479;-78
2023/03/29 09:17:42;;;;;;;12.90;5.60;;;9.70;99.90;;;;;;5069429;28;20102;-78
2023/03/29 09:20:09;;;;;;;;;;;9.80;99.90;;;;;;5066988;28;20067;-77
2023/03/29 09:23:16;;;;;;;11.90;5.85;;;9.80;99.90;;;;;;5067589;28;20003;-78
2023/03/29 09:26:12;;;;;;;9.73;5.18;;;9.90;99.90;;;;;;5069145;28;20045;-78
2023/03/29 09:28:54;;;;;;;10.73;6.10;;;10.00;99.90;;;;;;5067297;28;20052;-78
2023/03/29 09:31:25;;;;;;;12.90;6.63;;;10.10;99.90;;;;;;5069011;28;20458;-78
2023/03/29 09:33:58;;;;;;;11.98;6.07;;;10.20;99.90;;;;;;5068479;28;20055;-77
2023/03/29 09:36:29;;;;;;;15.27;6.65;;;10.20;99.90;;;;;;5066007;28;20049;-78
2023/03/29 09:38:55;;;;;;;15.73;6.53;;;10.20;99.90;;;;;;5069392;28;20040;-78
2023/03/29 09:41:32;;;;;;;13.52;5.50;;;10.20;99.90;;;;;;5067064;28;20045;-79
2023/03/29 09:44:04;;;;;;;12.65;6.80;;;10.30;99.90;;;;;;5067934;28;20048;-79
2023/03/29 09:46:42;;;;;;;12.93;6.10;;;10.40;99.90;;;;;;5068326;28;20063;-78
2023/03/29 09:49:30;;;;;;;23.05;7.75;;;10.40;99.90;;;;;;5066242;28;20484;-78
2023/03/29 09:52:01;;;;;;;19.17;6.65;;;10.60;99.90;;;;;;5066599;28;20063;-78
2023/03/29 09:54:27;;;;;;;12.55;6.28;;;10.60;99.90;;;;;;5067088;28;20098;-77
2023/03/29 09:56:53;;;;;;;13.18;7.18;;;10.80;99.90;;;;;;5068817;28;20044;-78
2023/03/29 09:59:20;;;;;;;16.80;8.13;;;10.60;99.90;;;;;;5067470;28;20041;-78
2023/03/29 10:01:45;;;;;;;13.32;7.07;;;10.60;99.90;;;;;;5067822;28;20127;-78
2023/03/29 10:04:12;;;;;;;14.07;7.00;;;10.70;99.90;;;;;;5067986;28;20133;-78
2023/03/29 10:06:48;;;;;;;19.00;6.82;;;10.80;99.90;;;;;;5066871;28;20564;-78
2023/03/29 10:09:21;;;;;;;17.15;7.75;;;10.70;99.90;;;;;;5068358;28;20048;-79
2023/03/29 10:11:52;;;;;;;16.92;7.32;;;10.70;99.90;;;;;;5067135;28;20040;-78
2023/03/29 10:14:27;;;;;;;15.93;7.97;;;10.70;99.90;;;;;;5068095;28;20044;-78
2023/03/29 10:16:55;;;;;;;20.52;7.90;;;10.70;99.90;;;;;;5050049;28;20049;-78
2023/03/29 10:19:34;;;;;;;19.60;8.65;;;10.80;99.90;;;;;;5064941;28;20558;-79
2023/03/29 10:22:06;;;;;;;16.45;7.97;;;10.80;99.90;;;;;;5066640;28;20135;-79
2023/03/29 10:24:32;;;;;;;17.03;7.60;;;10.80;99.90;;;;;;5065519;28;20052;-78
2023/03/29 10:27:05;;;;;;;13.75;7.55;;;10.90;99.90;;;;;;5066812;28;20056;-78
2023/03/29 10:29:37;;;;;;;15.25;7.35;;;10.90;99.90;;;;;;5066224;28;20113;-78
2023/03/29 10:32:33;;;;;;;12.48;7.18;;;10.90;99.90;;;;;;5064924;28;20045;-78
2023/03/29 10:35:06;;;;;;;18.20;7.47;;;10.90;99.90;;;;;;5065960;28;20056;-78
2023/03/29 10:37:31;;;;;;;16.30;7.63;;;10.90;99.90;;;;;;5065676;28;20365;-78
2023/03/29 10:39:57;;;;;;;16.35;8.13;;;10.80;99.90;;;;;;5067607;28;20051;-79
2023/03/29 10:42:24;;;;;;;13.32;7.35;;;10.80;99.90;;;;;;5066248;28;20087;-78
2023/03/29 10:44:58;;;;;;;12.95;7.57;;;10.90;99.90;;;;;;5065041;28;20048;-78
2023/03/29 10:47:25;;;;;;;18.33;7.70;;;10.90;99.90;;;;;;5067439;28;20130;-78
2023/03/29 10:49:57;;;;;;;19.58;8.30;;;11.10;99.90;;;;;;5064157;28;20052;-78
2023/03/29 10:52:24;;;;;;;15.13;7.57;;;11.20;99.90;;;;;;5066217;28;20091;-78
2023/03/29 10:54:51;;;;;;;15.57;8.38;;;11.30;99.90;;;;;;5065130;28;20059;-79
2023/03/29 10:57:36;;;;;;;15.13;7.43;;;11.30;99.90;;;;;;5049166;28;20132;-81
2023/03/29 11:00:23;;;;;;;11.98;7.57;;;11.40;99.90;;;;;;5065745;28;20048;-78
2023/03/29 11:03:11;;;;;;;17.48;8.10;;;11.50;99.90;;;;;;5064371;28;20483;-81
2023/03/29 11:06:00;;;;;;;15.45;8.45;;;11.70;99.90;;;;;;5048964;28;20104;-80
2023/03/29 11:08:36;;;;;;;16.58;8.52;;;11.80;99.90;;;;;;5065123;28;20052;-79
2023/03/29 11:11:15;;;;;;;18.20;8.80;;;11.80;99.90;;;;;;5063882;28;20049;-79
2023/03/29 11:14:07;;;;;;;23.45;8.48;;;12.00;99.90;;;;;;5049469;28;20052;-79
2023/03/29 11:17:04;;;;;;;16.13;9.30;;;12.10;99.90;;;;;;5065368;28;20052;-79
2023/03/29 11:20:04;;;;;;;16.73;8.38;;;12.40;99.90;;;;;;5047380;28;20112;-79
2023/03/29 11:22:40;;;;;;;17.73;8.30;;;12.60;99.90;;;;;;5065955;28;20048;-79
2023/03/29 11:25:29;;;;;;;14.82;8.18;;;12.80;99.90;;;;;;5065124;28;20093;-79
2023/03/29 11:28:44;;;;;;;14.75;8.90;;;12.90;99.90;;;;;;5063951;28;20048;-79
2023/03/29 11:31:37;;;;;;;13.27;8.30;;;13.00;99.90;;;;;;5063066;28;20061;-80
2023/03/29 11:34:25;;;;;;;14.77;8.15;;;13.10;99.90;;;;;;5065310;28;20049;-80
2023/03/29 11:37:09;;;;;;;14.45;7.75;;;13.20;99.90;;;;;;5063328;28;20052;-80
2023/03/29 11:40:01;;;;;;;12.70;8.02;;;13.30;99.90;;;;;;5065923;28;20044;-79
2023/03/29 11:42:33;;;;;;;15.68;8.98;;;13.30;99.90;;;;;;5065253;28;20044;-80
2023/03/29 11:45:03;;;;;;;12.95;8.00;;;13.30;99.90;;;;;;5063648;28;20060;-79
2023/03/29 11:47:32;;;;;;;17.08;8.35;;;13.30;99.90;;;;;;5066536;28;20127;-80
2023/03/29 11:50:17;;;;;;;20.73;8.65;;;13.30;99.90;;;;;;5065175;28;20059;-80
2023/03/29 11:52:50;;;;;;;13.50;8.65;;;13.30;99.90;;;;;;5064682;28;20070;-77
2023/03/29 11:55:32;;;;;;;15.63;8.15;;;13.30;99.90;;;;;;5066576;28;20310;-80
2023/03/29 11:58:06;;;;;;;13.23;7.88;;;13.40;99.90;;;;;;5063542;28;20134;-77
2023/03/29 12:00:47;;;;;;;16.45;8.10;;;13.40;99.90;;;;;;5064939;28;20041;-79
2023/03/29 12:03:47;;;;;;;14.07;7.97;;;13.40;99.90;;;;;;5064249;28;20369;-80
2023/03/29 12:06:39;;;;;;;16.10;8.65;;;13.40;99.90;;;;;;5065164;28;20036;-79
2023/03/29 12:09:21;;;;;;;12.20;7.75;;;13.60;99.90;;;;;;5066735;28;20045;-79
2023/03/29 12:12:25;;;;;;;14.18;8.00;;;13.60;99.90;;;;;;5047364;28;20040;-80
2023/03/29 12:15:19;;;;;;;12.45;8.60;;;13.70;99.90;;;;;;5064546;28;20049;-80
2023/03/29 12:18:06;;;;;;;15.50;9.10;;;13.60;99.90;;;;;;5066568;28;20037;-79
2023/03/29 12:20:36;;;;;;;16.20;7.15;;;13.70;99.90;;;;;;5047422;28;20083;-80
2023/03/29 12:23:04;;;;;;;13.88;7.47;;;13.70;99.90;;;;;;5065106;28;20051;-80
2023/03/29 12:25:39;;;;;;;9.55;7.13;;;13.80;99.90;;;;;;5069050;28;20161;-83
2023/03/29 12:28:28;;;;;;;8.82;6.28;;;14.00;99.90;;;;;;5068764;28;20055;-80
2023/03/29 12:31:08;;;;;;;9.60;7.03;;;14.10;99.90;;;;;;5070213;28;20135;-79
2023/03/29 12:34:11;;;;;;;11.43;6.53;;;14.20;99.90;;;;;;5070147;28;20131;-80
2023/03/29 12:37:24;;;;;;;12.95;7.28;;;14.40;99.90;;;;;;5067383;28;20391;-80
2023/03/29 12:39:50;;;;;;;12.80;6.53;;;14.40;99.90;;;;;;5058962;28;20060;-79
2023/03/29 12:42:21;;;;;;;14.30;7.20;;;14.40;99.90;;;;;;5069974;28;20063;-80
2023/03/29 12:45:12;;;;;;;11.40;6.25;;;14.40;99.90;;;;;;5068467;28;20514;-79
2023/03/29 12:47:44;;;;;;;10.25;6.28;;;14.30;99.90;;;;;;5068309;28;20138;-80
2023/03/29 12:50:27;;;;;;;14.10;6.75;;;14.30;99.90;;;;;;5067698;28;20206;-80
2023/03/29 12:53:14;;;;;;;8.77;6.45;;;14.30;99.90;;;;;;5067451;28;20052;-79
2023/03/29 12:55:42;;;;;;;13.55;7.13;;;14.30;99.90;;;;;;5069929;28;20052;-80
2023/03/29 12:58:37;;;;;;;10.68;6.40;;;14.40;99.90;;;;;;5068258;28;20054;-81
2023/03/29 13:01:20;;;;;;;11.02;6.00;;;14.50;99.90;;;;;;5065288;28;20461;-81
2023/03/29 13:03:49;;;;;;;11.13;6.18;;;14.50;99.90;;;;;;5051661;28;20492;-81
2023/03/29 13:06:25;;;;;;;10.18;5.75;;;14.40;99.90;;;;;;5066893;28;20051;-81
2023/03/29 13:09:01;;;;;;;9.65;6.28;;;14.40;99.90;;;;;;5068172;28;20044;-81
2023/03/29 13:11:33;;;;;;;9.13;6.25;;;14.20;99.90;;;;;;5049894;28;20066;-81
2023/03/29 13:14:15;;;;;;;7.07;3.97;;;14.20;99.90;;;;;;5068142;28;20037;-80